Time;durP1;ratioP1;P1;durP2;ratioP2;P2;SDS_P1;SDS_P2;PMS_P1;PMS_P2;Temp;Humidity;BMP_temperature;BMP_pressure;BME280_temperature;BME280_humidity;BME280_pressure;Samples;Min_cycle;Max_cycle;Signal;HPM_P1;HPM_P2
2024/01/16 00:01:51;;;;;;;7.97;1.00;;;;;;;5.43;67.16;101035.59;4993713;28;20121;-48
2024/01/16 00:04:16;;;;;;;6.97;0.90;;;;;;;5.33;66.28;101044.69;4993229;28;20042;-45
2024/01/16 00:06:42;;;;;;;6.05;1.00;;;;;;;5.22;66.13;101053.75;4993080;28;20456;-46
2024/01/16 00:09:09;;;;;;;4.78;1.10;;;;;;;5.11;65.73;101057.66;4991788;28;20130;-49
2024/01/16 00:11:41;;;;;;;5.70;0.82;;;;;;;5.56;64.22;101058.47;4992201;28;20046;-45
2024/01/16 00:14:06;;;;;;;9.15;1.15;;;;;;;5.41;65.28;101058.81;4994165;28;20039;-44
2024/01/16 00:16:31;;;;;;;6.22;1.00;;;;;;;5.31;65.65;101054.97;4994972;28;20699;-49
2024/01/16 00:18:57;;;;;;;7.25;0.90;;;;;;;5.50;64.18;101058.25;4994628;28;20034;-44
2024/01/16 00:21:22;;;;;;;4.50;0.93;;;;;;;5.45;64.17;101058.09;4995094;28;20037;-46
2024/01/16 00:23:47;;;;;;;7.10;0.88;;;;;;;5.05;65.60;101050.56;4997423;28;20516;-44
2024/01/16 00:26:22;;;;;;;6.38;0.70;;;;;;;5.01;66.78;101065.84;5000260;28;20494;-45
2024/01/16 00:28:47;;;;;;;6.57;0.95;;;;;;;4.95;67.19;101071.66;4999784;28;20054;-45
2024/01/16 00:31:13;;;;;;;6.45;0.75;;;;;;;5.27;67.46;101065.16;4995702;28;20033;-44
2024/01/16 00:33:39;;;;;;;8.40;0.88;;;;;;;5.17;68.44;101070.81;4994989;28;20034;-47
2024/01/16 00:36:05;;;;;;;5.53;1.13;;;;;;;5.10;69.37;101069.69;4994253;28;20038;-48
2024/01/16 00:38:33;;;;;;;6.03;1.27;;;;;;;5.11;69.33;101071.47;4996059;28;20042;-50
2024/01/16 00:40:58;;;;;;;5.55;0.65;;;;;;;5.53;68.07;101074.75;4994456;28;20409;-45
2024/01/16 00:43:24;;;;;;;8.07;1.98;;;;;;;5.15;68.98;101078.50;4993302;28;20036;-44
2024/01/16 00:45:49;;;;;;;4.70;0.63;;;;;;;5.22;68.35;101079.63;4992035;28;20049;-48
2024/01/16 00:48:15;;;;;;;4.47;0.95;;;;;;;5.43;67.02;101075.22;4992308;28;20100;-47
2024/01/16 00:50:41;;;;;;;2.95;0.75;;;;;;;5.90;64.88;101064.06;4992531;28;20412;-45
2024/01/16 00:53:06;;;;;;;5.75;0.70;;;;;;;5.79;65.27;101061.91;4991309;28;20041;-44
2024/01/16 00:55:31;;;;;;;3.08;0.70;;;;;;;5.58;66.81;101060.28;4992381;28;20034;-45
2024/01/16 00:57:57;;;;;;;5.28;0.80;;;;;;;5.71;66.24;101057.31;4992233;28;20401;-45
2024/01/16 01:00:22;;;;;;;5.43;1.35;;;;;;;5.59;66.68;101053.41;4992703;28;20408;-44
2024/01/16 01:02:47;;;;;;;4.80;0.90;;;;;;;5.56;66.59;101063.63;4993120;28;20061;-50
2024/01/16 01:05:13;;;;;;;5.47;0.93;;;;;;;5.52;66.49;101070.41;4991333;28;20464;-48
2024/01/16 01:07:38;;;;;;;4.25;0.90;;;;;;;5.54;67.53;101070.47;4991997;28;20127;-44
2024/01/16 01:10:04;;;;;;;6.75;1.02;;;;;;;5.67;66.24;101075.28;4991634;28;20034;-46
2024/01/16 01:12:29;;;;;;;4.82;0.88;;;;;;;5.53;67.21;101073.88;4992430;28;20128;-44
2024/01/16 01:14:54;;;;;;;6.60;0.88;;;;;;;5.41;67.74;101074.31;4991677;28;20038;-45
2024/01/16 01:17:20;;;;;;;5.90;1.05;;;;;;;5.50;67.25;101074.63;4992621;28;20042;-45
2024/01/16 01:19:46;;;;;;;4.10;0.80;;;;;;;5.35;67.93;101083.53;4992393;28;20500;-45
2024/01/16 01:22:12;;;;;;;2.53;0.80;;;;;;;4.96;68.95;101095.81;4990869;28;20041;-47
2024/01/16 01:24:37;;;;;;;3.45;0.73;;;;;;;4.83;71.03;101094.44;4993096;28;20497;-44
2024/01/16 01:27:03;;;;;;;7.50;1.02;;;;;;;5.08;70.04;101102.34;4992282;28;20049;-46
2024/01/16 01:29:29;;;;;;;7.05;0.90;;;;;;;5.23;69.45;101102.06;4992899;28;20054;-46
2024/01/16 01:31:54;;;;;;;3.90;0.60;;;;;;;5.00;70.93;101100.28;4992519;28;20034;-47
2024/01/16 01:34:19;;;;;;;4.53;0.82;;;;;;;5.51;68.57;101093.63;4975569;28;20038;-43
2024/01/16 01:36:45;;;;;;;6.00;0.98;;;;;;;5.81;67.48;101089.56;4994565;28;20524;-47
2024/01/16 01:39:11;;;;;;;3.70;0.73;;;;;;;5.59;68.46;101077.56;4994822;28;20054;-44
2024/01/16 01:41:36;;;;;;;3.53;0.63;;;;;;;5.76;67.52;101087.66;4997034;28;20044;-44
2024/01/16 01:44:02;;;;;;;3.40;0.75;;;;;;;5.69;67.36;101084.84;4995368;28;20042;-45
2024/01/16 01:46:29;;;;;;;6.43;0.80;;;;;;;5.77;66.87;101076.47;4994773;28;20050;-45
2024/01/16 01:48:55;;;;;;;2.47;0.77;;;;;;;5.65;67.03;101079.50;4996190;28;20070;-48
2024/01/16 01:51:21;;;;;;;3.28;0.73;;;;;;;5.84;66.24;101069.00;4996566;28;20092;-47
2024/01/16 01:53:49;;;;;;;6.90;1.08;;;;;;;5.84;65.54;101074.16;5000451;28;20038;-46
2024/01/16 01:56:17;;;;;;;3.15;0.70;;;;;;;5.69;66.46;101074.50;5000901;28;20030;-46
2024/01/16 01:58:44;;;;;;;4.97;0.90;;;;;;;5.57;67.75;101068.88;4999015;28;20042;-45
2024/01/16 02:01:11;;;;;;;3.83;0.77;;;;;;;5.18;69.37;101076.03;4992955;28;20073;-50
2024/01/16 02:03:44;;;;;;;2.42;0.82;;;;;;;5.28;69.68;101069.50;4990542;28;20046;-45
2024/01/16 02:06:11;;;;;;;4.53;0.70;;;;;;;5.53;68.54;101076.47;4991068;28;20049;-45
2024/01/16 02:08:37;;;;;;;8.38;0.85;;;;;;;5.52;68.90;101073.00;4991832;28;20038;-46
2024/01/16 02:11:02;;;;;;;11.02;1.30;;;;;;;5.28;69.38;101065.22;4991239;28;20030;-44
2024/01/16 02:13:28;;;;;;;4.57;1.02;;;;;;;5.63;68.89;101071.69;4991761;28;20640;-44
2024/01/16 02:15:53;;;;;;;8.20;0.90;;;;;;;5.73;68.96;101080.66;4990092;28;20038;-48
2024/01/16 02:18:19;;;;;;;9.73;1.35;;;;;;;5.80;67.84;101076.56;4991067;28;20045;-49
2024/01/16 02:20:45;;;;;;;5.68;0.80;;;;;;;5.52;68.72;101073.00;4990943;28;20481;-45
2024/01/16 02:23:13;;;;;;;7.72;0.88;;;;;;;5.68;68.28;101077.91;4990689;28;20513;-45
2024/01/16 02:25:39;;;;;;;7.60;0.90;;;;;;;5.52;69.11;101074.69;4990849;28;20505;-45
2024/01/16 02:28:05;;;;;;;7.85;0.75;;;;;;;5.15;71.19;101064.69;4990958;28;20041;-43
2024/01/16 02:30:30;;;;;;;5.53;1.00;;;;;;;5.13;71.77;101063.75;4989882;28;20034;-46
2024/01/16 02:32:56;;;;;;;9.55;1.00;;;;;;;5.23;71.79;101060.69;4990712;28;20034;-45
2024/01/16 02:35:21;;;;;;;4.90;1.10;;;;;;;5.48;70.66;101059.91;4990300;28;20110;-46
2024/01/16 02:37:47;;;;;;;4.07;1.00;;;;;;;5.71;69.75;101061.63;4989587;28;20046;-43
2024/01/16 02:40:13;;;;;;;4.55;1.23;;;;;;;5.79;69.32;101055.03;4990951;28;20038;-44
2024/01/16 02:42:38;;;;;;;5.57;1.33;;;;;;;5.49;70.07;101064.25;4991063;28;20038;-44
2024/01/16 02:45:05;;;;;;;10.65;1.23;;;;;;;5.44;70.44;101068.34;4990242;28;20563;-50
2024/01/16 02:47:30;;;;;;;7.13;0.93;;;;;;;5.44;70.29;101060.59;4990969;28;20034;-44
2024/01/16 02:49:56;;;;;;;5.10;1.13;;;;;;;5.62;69.67;101059.56;4988971;28;20034;-43
2024/01/16 02:52:22;;;;;;;4.40;0.98;;;;;;;5.35;69.73;101055.09;4990764;28;20065;-44
2024/01/16 02:54:47;;;;;;;7.93;1.10;;;;;;;5.57;70.21;101055.06;4990631;28;20069;-45
2024/01/16 02:57:12;;;;;;;3.17;1.00;;;;;;;5.52;69.74;101046.25;4991234;28;20034;-48
2024/01/16 02:59:38;;;;;;;4.75;1.30;;;;;;;5.63;69.55;101047.53;4991602;28;20046;-45
2024/01/16 03:02:04;;;;;;;4.00;0.90;;;;;;;5.27;70.83;101058.28;4990240;28;20134;-48
2024/01/16 03:04:29;;;;;;;8.55;1.20;;;;;;;5.21;71.97;101052.88;4990796;28;20079;-45
2024/01/16 03:06:55;;;;;;;8.13;1.52;;;;;;;5.46;71.48;101056.38;4988817;28;20042;-46
2024/01/16 03:09:21;;;;;;;3.88;0.90;;;;;;;5.44;71.67;101053.72;4994431;28;20075;-47
2024/01/16 03:11:46;;;;;;;6.45;1.17;;;;;;;5.43;71.00;101061.44;4994443;28;20110;-45
2024/01/16 03:14:13;;;;;;;3.83;1.00;;;;;;;5.64;70.50;101052.75;4993617;28;21441;-45
2024/01/16 03:16:39;;;;;;;4.38;1.20;;;;;;;5.63;69.90;101050.09;4994443;28;20041;-42
2024/01/16 03:19:05;;;;;;;5.40;1.08;;;;;;;5.88;69.25;101051.88;4994291;28;20042;-45
2024/01/16 03:21:30;;;;;;;7.72;1.17;;;;;;;5.69;69.38;101047.75;4994591;28;20421;-45
2024/01/16 03:23:56;;;;;;;5.07;1.20;;;;;;;5.80;68.48;101037.75;4995263;28;20038;-46
2024/01/16 03:26:21;;;;;;;6.65;1.35;;;;;;;5.72;68.62;101037.50;4993683;28;20046;-46
2024/01/16 03:28:46;;;;;;;5.03;1.00;;;;;;;5.64;68.44;101032.06;4994448;28;20045;-46
2024/01/16 03:31:15;;;;;;;5.03;1.08;;;;;;;5.70;68.65;101036.56;4994175;28;20037;-47
2024/01/16 03:33:42;;;;;;;9.30;1.10;;;;;;;5.26;69.84;101040.13;4994681;28;20053;-46
2024/01/16 03:36:09;;;;;;;4.22;1.10;;;;;;;5.56;69.79;101045.53;4993616;28;20089;-44
2024/01/16 03:38:36;;;;;;;3.00;1.10;;;;;;;5.05;72.68;101057.41;4994343;28;20038;-45
2024/01/16 03:41:03;;;;;;;6.43;1.20;;;;;;;4.52;75.11;101057.88;4993261;28;20038;-44
2024/01/16 03:43:28;;;;;;;6.55;0.90;;;;;;;5.10;74.02;101049.03;4993796;28;20034;-45
2024/01/16 03:45:57;;;;;;;4.88;1.30;;;;;;;5.30;72.59;101048.06;4993411;28;20100;-45
2024/01/16 03:48:22;;;;;;;8.57;1.10;;;;;;;5.57;71.40;101057.66;4994763;28;20424;-48
2024/01/16 03:50:47;;;;;;;4.18;0.82;;;;;;;5.10;72.41;101058.47;4994698;28;20038;-44
2024/01/16 03:53:13;;;;;;;7.40;1.08;;;;;;;5.04;73.13;101064.28;4993239;28;20034;-45
2024/01/16 03:55:38;;;;;;;6.50;1.40;;;;;;;4.39;75.92;101062.53;4993095;28;20066;-44
2024/01/16 03:58:04;;;;;;;4.68;1.20;;;;;;;4.58;75.67;101060.69;4993062;28;20416;-45
2024/01/16 04:00:29;;;;;;;4.25;1.20;;;;;;;4.70;74.17;101063.78;4993769;28;20038;-45
2024/01/16 04:02:55;;;;;;;4.90;1.45;;;;;;;5.08;72.73;101061.00;4993202;28;20489;-45
2024/01/16 04:05:20;;;;;;;4.75;1.40;;;;;;;5.39;71.45;101051.81;4992576;28;20444;-44
2024/01/16 04:07:45;;;;;;;8.00;1.45;;;;;;;5.33;71.38;101049.88;4993023;28;20034;-48
2024/01/16 04:10:11;;;;;;;5.53;1.48;;;;;;;5.37;71.34;101037.97;4992336;28;20398;-45
2024/01/16 04:12:37;;;;;;;5.00;1.60;;;;;;;5.59;70.25;101032.72;4993353;28;20034;-43
2024/01/16 04:15:02;;;;;;;7.55;1.60;;;;;;;5.69;69.49;101025.34;4992538;28;20089;-44
2024/01/16 04:17:28;;;;;;;5.88;1.60;;;;;;;5.68;69.37;101031.34;4993555;28;20030;-51
2024/01/16 04:19:53;;;;;;;5.55;1.80;;;;;;;5.74;69.35;101020.31;4992848;28;20125;-45
2024/01/16 04:22:19;;;;;;;5.88;1.70;;;;;;;5.87;68.69;101019.97;4999175;28;20117;-44
2024/01/16 04:24:44;;;;;;;9.45;1.90;;;;;;;5.55;69.82;101013.63;4996338;28;20069;-45
2024/01/16 04:27:10;;;;;;;10.98;1.60;;;;;;;5.81;69.48;101011.06;4998195;28;20505;-45
2024/01/16 04:29:37;;;;;;;4.90;1.80;;;;;;;5.65;69.34;101012.25;4997070;28;20042;-46
2024/01/16 04:32:02;;;;;;;8.05;1.85;;;;;;;5.63;69.44;101012.19;4995898;28;20519;-47
2024/01/16 04:34:28;;;;;;;6.03;1.63;;;;;;;5.84;69.13;101011.19;4994472;28;20034;-46
2024/01/16 04:36:54;;;;;;;7.65;2.00;;;;;;;5.91;68.82;101008.03;4993233;28;20034;-50
2024/01/16 04:39:22;;;;;;;4.97;1.63;;;;;;;5.91;69.09;101008.03;4993441;28;20042;-47
2024/01/16 04:41:47;;;;;;;4.55;1.40;;;;;;;5.95;68.74;101007.28;4993137;28;20042;-45
2024/01/16 04:44:12;;;;;;;8.20;1.50;;;;;;;5.88;68.79;101011.38;4992315;28;20046;-48
2024/01/16 04:46:38;;;;;;;5.03;1.50;;;;;;;5.89;68.91;101009.66;4992810;28;20516;-46
2024/01/16 04:49:03;;;;;;;9.80;1.95;;;;;;;5.91;68.91;101011.50;4992093;28;20444;-48
2024/01/16 04:51:28;;;;;;;5.43;1.80;;;;;;;5.86;68.87;101012.09;4992683;28;20610;-46
2024/01/16 04:53:54;;;;;;;6.50;1.90;;;;;;;5.88;68.85;101013.09;4992174;28;20041;-48
2024/01/16 04:56:19;;;;;;;7.90;1.90;;;;;;;5.69;69.34;101006.34;4991776;28;20444;-47
2024/01/16 04:58:44;;;;;;;9.38;2.00;;;;;;;5.81;69.09;101005.91;4991234;28;20429;-44
2024/01/16 05:01:10;;;;;;;9.30;1.70;;;;;;;5.83;69.00;101001.66;4991926;28;20034;-44
2024/01/16 05:03:36;;;;;;;4.53;1.60;;;;;;;5.71;68.77;100994.38;4992718;28;20049;-50
2024/01/16 05:06:01;;;;;;;6.97;1.90;;;;;;;5.81;68.50;100990.38;4991258;28;20030;-45
2024/01/16 05:08:26;;;;;;;8.73;2.00;;;;;;;5.78;68.32;100993.75;4992065;28;20108;-45
2024/01/16 05:10:52;;;;;;;8.07;1.98;;;;;;;5.77;68.45;100986.81;4991930;28;20397;-48
2024/01/16 05:13:17;;;;;;;6.60;2.10;;;;;;;5.72;68.30;100981.50;4991635;28;20034;-47
2024/01/16 05:15:42;;;;;;;9.60;2.28;;;;;;;5.56;68.75;100983.47;4991468;28;20045;-47
2024/01/16 05:18:09;;;;;;;7.47;2.30;;;;;;;5.63;68.88;100988.91;4991526;28;20031;-45
2024/01/16 05:20:34;;;;;;;8.68;2.30;;;;;;;5.66;68.99;100975.22;4992008;28;20042;-49
2024/01/16 05:23:00;;;;;;;7.75;2.08;;;;;;;5.66;68.47;100976.09;4991460;28;20038;-47
2024/01/16 05:25:25;;;;;;;7.55;2.22;;;;;;;5.64;68.98;100971.69;4991466;28;20073;-46
2024/01/16 05:27:50;;;;;;;9.77;2.40;;;;;;;5.64;68.81;100970.00;4992178;28;20030;-47
2024/01/16 05:30:16;;;;;;;10.65;2.60;;;;;;;5.60;68.99;100964.66;4991152;28;20512;-44
2024/01/16 05:32:41;;;;;;;10.40;2.70;;;;;;;5.55;69.28;100974.81;4991863;28;20093;-46
2024/01/16 05:35:07;;;;;;;11.93;2.88;;;;;;;5.56;69.06;100960.19;4991045;28;20112;-45
2024/01/16 05:37:33;;;;;;;15.43;3.20;;;;;;;5.53;69.59;100962.69;4991646;28;20218;-44
2024/01/16 05:39:58;;;;;;;7.40;3.03;;;;;;;5.60;69.42;100962.97;4991239;28;20037;-43
2024/01/16 05:42:23;;;;;;;9.07;3.13;;;;;;;5.63;69.29;100959.59;4991604;28;20090;-44
2024/01/16 05:44:49;;;;;;;11.60;3.70;;;;;;;5.63;69.38;100957.88;4991450;28;20523;-44
2024/01/16 05:47:14;;;;;;;10.85;3.13;;;;;;;5.24;70.77;100953.91;4990825;28;20088;-44
2024/01/16 05:49:41;;;;;;;10.73;3.42;;;;;;;5.39;71.28;100959.63;4990478;28;20066;-47
2024/01/16 05:52:07;;;;;;;11.98;3.20;;;;;;;5.64;70.49;100946.72;4991237;28;20038;-47
2024/01/16 05:54:32;;;;;;;14.70;3.60;;;;;;;5.28;71.51;100943.72;4990934;28;20042;-47
2024/01/16 05:56:57;;;;;;;11.13;3.50;;;;;;;5.50;70.80;100945.34;4990439;28;20034;-44
2024/01/16 05:59:23;;;;;;;11.18;3.40;;;;;;;5.57;70.86;100938.69;4990972;28;20034;-44
2024/01/16 06:01:49;;;;;;;10.10;3.55;;;;;;;5.34;71.81;100948.22;4991732;28;20030;-45
2024/01/16 06:04:15;;;;;;;10.02;3.70;;;;;;;5.58;70.19;100946.50;4990543;28;20508;-45
2024/01/16 06:06:45;;;;;;;9.65;3.60;;;;;;;5.58;70.05;100948.22;4991154;28;20144;-46
2024/01/16 06:09:13;;;;;;;12.73;3.50;;;;;;;5.65;69.71;100937.25;4991117;28;20520;-45
2024/01/16 06:11:40;;;;;;;12.60;3.40;;;;;;;5.54;69.91;100936.91;4991839;28;20129;-44
2024/01/16 06:14:09;;;;;;;10.60;3.70;;;;;;;5.66;69.37;100939.91;4990988;28;20034;-46
2024/01/16 06:16:35;;;;;;;15.23;4.00;;;;;;;5.52;69.60;100941.13;4990787;28;20409;-45
2024/01/16 06:19:00;;;;;;;19.70;4.00;;;;;;;5.49;69.94;100943.59;4990377;28;20034;-45
2024/01/16 06:21:26;;;;;;;14.07;3.85;;;;;;;5.57;69.74;100936.97;4990760;28;20045;-43
2024/01/16 06:23:51;;;;;;;9.90;3.70;;;;;;;5.47;69.87;100950.44;4990963;28;20037;-44
2024/01/16 06:26:17;;;;;;;11.23;3.53;;;;;;;5.41;70.25;100947.63;4990066;28;20444;-47
2024/01/16 06:28:42;;;;;;;11.63;3.58;;;;;;;5.39;70.15;100948.38;4991077;28;20038;-44
2024/01/16 06:31:11;;;;;;;7.38;3.50;;;;;;;5.52;69.83;100948.88;4991210;28;20034;-44
2024/01/16 06:33:37;;;;;;;8.48;3.35;;;;;;;5.54;69.27;100951.53;4990778;28;20554;-44
2024/01/16 06:36:06;;;;;;;8.65;2.83;;;;;;;5.54;69.09;100946.34;4990050;28;20046;-44
2024/01/16 06:38:31;;;;;;;11.13;3.42;;;;;;;5.49;69.09;100947.91;4991246;28;20117;-44
2024/01/16 06:40:58;;;;;;;9.02;3.20;;;;;;;5.47;69.03;100944.38;4988891;28;20034;-45
2024/01/16 06:43:23;;;;;;;13.13;2.92;;;;;;;5.41;69.32;100949.34;4989979;28;20043;-44
2024/01/16 06:45:48;;;;;;;16.67;2.85;;;;;;;5.40;69.52;100942.41;4990304;28;20085;-45
2024/01/16 06:48:14;;;;;;;9.00;3.15;;;;;;;5.28;69.85;100943.72;4990678;28;20034;-46
2024/01/16 06:50:39;;;;;;;11.02;2.80;;;;;;;5.26;70.19;100941.91;4991300;28;20042;-45
2024/01/16 06:53:04;;;;;;;10.73;2.97;;;;;;;5.39;70.03;100944.09;4990745;28;20034;-47
2024/01/16 06:55:29;;;;;;;10.18;2.50;;;;;;;5.47;69.48;100940.09;4990741;28;20504;-44
2024/01/16 06:57:55;;;;;;;8.65;2.55;;;;;;;5.34;69.68;100947.34;4990974;28;20041;-47
2024/01/16 07:00:22;;;;;;;7.60;2.58;;;;;;;5.34;69.81;100950.81;4991751;28;20125;-46
2024/01/16 07:02:48;;;;;;;8.10;2.22;;;;;;;5.39;69.42;100951.84;4990980;28;20058;-45
2024/01/16 07:05:13;;;;;;;16.77;2.50;;;;;;;5.43;68.97;100952.88;4989679;28;20042;-46
2024/01/16 07:07:39;;;;;;;8.23;2.20;;;;;;;5.41;69.20;100941.56;4990661;28;20129;-49
2024/01/16 07:10:08;;;;;;;7.93;2.33;;;;;;;5.32;68.65;100948.16;4989855;28;20041;-45
2024/01/16 07:12:33;;;;;;;11.25;2.50;;;;;;;5.31;68.07;100950.69;4990554;28;20034;-48
2024/01/16 07:14:59;;;;;;;8.90;2.33;;;;;;;5.58;68.12;100953.38;4989922;28;20045;-44
2024/01/16 07:17:24;;;;;;;11.07;2.22;;;;;;;5.41;67.22;100955.38;4991145;28;20058;-46
2024/01/16 07:19:50;;;;;;;6.93;2.40;;;;;;;5.37;66.74;100955.22;4991107;28;20052;-44
2024/01/16 07:22:15;;;;;;;9.50;2.40;;;;;;;5.48;66.61;100959.94;4989950;28;20081;-48
2024/01/16 07:24:41;;;;;;;11.50;2.10;;;;;;;5.38;66.25;100964.72;4988950;28;20041;-44
2024/01/16 07:27:06;;;;;;;8.40;2.30;;;;;;;5.60;65.24;100964.66;4989386;28;20474;-47
2024/01/16 07:29:32;;;;;;;9.27;2.00;;;;;;;5.39;65.36;100962.19;4990048;28;20505;-50
2024/01/16 07:31:58;;;;;;;6.05;1.60;;;;;;;5.71;64.26;100969.38;4990057;28;20038;-45
2024/01/16 07:34:25;;;;;;;8.27;1.90;;;;;;;5.55;63.56;100967.06;4991687;28;20038;-46
2024/01/16 07:36:51;;;;;;;9.05;1.88;;;;;;;5.73;62.87;100965.13;4992920;28;20073;-49
2024/01/16 07:39:16;;;;;;;6.85;1.83;;;;;;;5.79;62.00;100973.94;4994877;28;20047;-44
2024/01/16 07:41:42;;;;;;;9.07;2.03;;;;;;;5.80;61.88;100975.66;4995092;28;20068;-45
2024/01/16 07:44:07;;;;;;;4.60;1.60;;;;;;;5.88;61.38;100975.16;4996526;28;20030;-45
2024/01/16 07:46:33;;;;;;;8.07;2.20;;;;;;;5.71;61.65;100984.91;4993726;28;20058;-44
2024/01/16 07:48:58;;;;;;;6.85;1.85;;;;;;;5.51;61.58;100985.91;4990863;28;20038;-45
2024/01/16 07:51:23;;;;;;;8.70;1.92;;;;;;;5.77;61.29;100984.22;4990166;28;20673;-44
2024/01/16 07:54:05;;;;;;;8.25;1.60;;;;;;;5.86;60.49;100981.06;4995471;28;20052;-48
2024/01/16 07:56:30;;;;;;;7.32;1.85;;;;;;;5.54;61.36;100982.56;4999107;28;20092;-44
2024/01/16 07:58:55;;;;;;;11.30;1.60;;;;;;;5.83;60.40;100976.69;4998810;28;20475;-46
2024/01/16 08:01:21;;;;;;;8.27;1.70;;;;;;;6.00;59.81;100977.28;4995330;28;20034;-44
2024/01/16 08:03:46;;;;;;;8.50;1.70;;;;;;;5.99;59.77;100976.38;4993921;28;20034;-44
2024/01/16 08:06:11;;;;;;;17.55;2.00;;;;;;;5.53;59.72;100976.50;4991639;28;20045;-45
2024/01/16 08:08:37;;;;;;;8.55;1.65;;;;;;;5.66;59.26;100975.22;4993878;28;20489;-43
2024/01/16 08:11:02;;;;;;;9.05;2.08;;;;;;;5.53;59.78;100980.78;4993677;28;20053;-45
2024/01/16 08:13:28;;;;;;;7.88;1.80;;;;;;;5.86;59.11;100973.28;4995797;28;20030;-48
2024/01/16 08:15:53;;;;;;;7.63;1.70;;;;;;;5.44;58.51;100978.75;4998852;28;20026;-48
2024/01/16 08:18:19;;;;;;;5.50;1.70;;;;;;;5.64;58.92;100980.34;4997580;28;20412;-43
2024/01/16 08:20:44;;;;;;;7.13;1.50;;;;;;;5.78;58.07;100988.59;4997725;28;20477;-46
2024/01/16 08:23:09;;;;;;;6.93;1.60;;;;;;;5.89;57.42;100976.03;4993934;28;20031;-43
2024/01/16 08:25:35;;;;;;;7.82;1.65;;;;;;;5.77;57.92;100981.63;4992606;28;20068;-44
2024/01/16 08:28:00;;;;;;;6.90;1.70;;;;;;;5.92;56.49;100973.53;4994375;28;20036;-45
2024/01/16 08:30:26;;;;;;;11.20;1.77;;;;;;;5.97;57.05;100972.00;4992970;28;20050;-50
2024/01/16 08:32:51;;;;;;;12.85;1.50;;;;;;;6.08;56.37;100975.81;4993858;28;20724;-45
2024/01/16 08:35:16;;;;;;;7.03;1.50;;;;;;;5.85;56.31;100977.63;4992649;28;20054;-45
2024/01/16 08:37:42;;;;;;;6.07;1.27;;;;;;;6.12;55.36;100969.91;4993891;28;20463;-43
2024/01/16 08:40:07;;;;;;;7.03;1.63;;;;;;;6.22;55.04;100969.38;4992674;28;20034;-44
2024/01/16 08:42:33;;;;;;;8.07;1.77;;;;;;;6.28;54.36;100971.31;4993043;28;20435;-45
2024/01/16 08:44:58;;;;;;;9.85;1.58;;;;;;;5.80;54.27;100973.97;4991842;28;20054;-45
2024/01/16 08:47:24;;;;;;;5.07;1.45;;;;;;;6.18;53.81;100971.81;4992641;28;20034;-43
2024/01/16 08:49:49;;;;;;;6.97;1.27;;;;;;;5.89;53.16;100970.84;4993516;28;20038;-46
2024/01/16 08:52:15;;;;;;;6.57;1.35;;;;;;;6.16;52.82;100971.75;4991998;28;20034;-48
2024/01/16 08:54:41;;;;;;;4.57;1.10;;;;;;;5.86;51.97;100973.28;4992791;28;20496;-45
2024/01/16 08:57:06;;;;;;;5.88;1.15;;;;;;;5.87;51.31;100973.38;4991615;28;20034;-45
2024/01/16 08:59:32;;;;;;;5.55;1.20;;;;;;;6.22;51.38;100956.41;4991014;28;20080;-43
2024/01/16 09:01:57;;;;;;;6.50;1.20;;;;;;;6.08;50.34;100963.75;4992341;28;20031;-49
2024/01/16 09:04:23;;;;;;;5.95;1.25;;;;;;;5.54;50.23;100969.63;4992183;28;20062;-44
2024/01/16 09:06:48;;;;;;;5.35;1.20;;;;;;;5.91;50.35;100972.69;4991531;28;20031;-45
2024/01/16 09:09:15;;;;;;;4.88;1.40;;;;;;;6.09;49.86;100964.66;4992117;28;20399;-45
2024/01/16 09:11:41;;;;;;;3.40;1.10;;;;;;;6.07;49.85;100974.94;4992760;28;20038;-44
2024/01/16 09:14:06;;;;;;;4.63;1.10;;;;;;;6.31;50.09;100973.97;4992307;28;20508;-45
2024/01/16 09:16:31;;;;;;;4.63;0.98;;;;;;;5.91;49.08;100976.97;4992498;28;20034;-42
2024/01/16 09:18:57;;;;;;;5.68;1.25;;;;;;;6.19;48.93;100971.00;4992913;28;20057;-45
2024/01/16 09:21:22;;;;;;;5.38;1.30;;;;;;;6.30;49.18;100974.78;4993752;28;20037;-46
2024/01/16 09:23:48;;;;;;;2.92;1.30;;;;;;;6.53;47.88;100977.28;4993477;28;20492;-45
2024/01/16 09:26:13;;;;;;;2.67;1.00;;;;;;;5.77;48.62;100979.06;4992397;28;20046;-44
2024/01/16 09:28:39;;;;;;;4.10;1.10;;;;;;;6.24;48.61;100972.88;4993842;28;20031;-49
2024/01/16 09:31:05;;;;;;;4.20;1.10;;;;;;;6.16;47.71;100978.66;4993417;28;20062;-44
2024/01/16 09:33:31;;;;;;;4.47;1.10;;;;;;;6.35;48.36;100968.94;4992709;28;20185;-46
2024/01/16 09:35:56;;;;;;;4.70;1.17;;;;;;;5.87;47.53;100972.47;4991657;28;20063;-44
2024/01/16 09:38:22;;;;;;;8.07;1.48;;;;;;;5.94;47.91;100970.19;4992578;28;20054;-43
2024/01/16 09:40:47;;;;;;;6.22;1.50;;;;;;;5.83;47.69;100971.50;4992376;28;20038;-47
2024/01/16 09:43:13;;;;;;;6.53;1.60;;;;;;;6.23;46.43;100970.25;4991976;28;20038;-46
2024/01/16 09:45:41;;;;;;;4.65;1.08;;;;;;;6.30;46.86;100972.22;4991595;28;20441;-45
2024/01/16 09:48:08;;;;;;;3.00;1.20;;;;;;;6.20;47.03;100970.16;4991647;28;20034;-45
2024/01/16 09:50:33;;;;;;;7.00;1.27;;;;;;;6.13;47.26;100969.09;4992812;28;20035;-45
2024/01/16 09:52:59;;;;;;;4.53;1.30;;;;;;;6.41;47.09;100963.06;4992776;28;20030;-43
2024/01/16 09:55:24;;;;;;;4.60;1.20;;;;;;;6.43;46.58;100954.53;4992112;28;20042;-44
2024/01/16 09:57:53;;;;;;;5.63;1.48;;;;;;;6.07;46.58;100958.53;4993171;28;20061;-44
2024/01/16 10:00:18;;;;;;;7.43;1.33;;;;;;;6.45;46.79;100962.34;4991872;28;20038;-45
2024/01/16 10:02:44;;;;;;;5.18;1.02;;;;;;;6.41;47.06;100963.94;4994247;28;20037;-45
2024/01/16 10:05:11;;;;;;;5.95;1.10;;;;;;;6.22;47.17;100958.16;4991977;28;20046;-49
2024/01/16 10:07:44;;;;;;;3.05;0.93;;;;;;;6.07;46.72;100955.94;4992015;28;20476;-44
2024/01/16 10:10:10;;;;;;;6.38;1.20;;;;;;;5.94;46.51;100943.41;4991609;28;20449;-44
2024/01/16 10:12:37;;;;;;;4.22;1.48;;;;;;;6.27;46.35;100948.81;4991526;28;20087;-45
2024/01/16 10:15:08;;;;;;;5.95;1.20;;;;;;;6.11;46.19;100944.84;4990663;28;20036;-47
2024/01/16 10:17:42;;;;;;;6.10;1.27;;;;;;;6.00;46.71;100946.22;4990415;28;20396;-44
2024/01/16 10:20:12;;;;;;;4.32;1.13;;;;;;;6.62;46.61;100943.03;4990852;28;20053;-44
2024/01/16 10:22:39;;;;;;;3.75;1.30;;;;;;;6.21;46.21;100954.69;4991445;28;20075;-44
2024/01/16 10:25:05;;;;;;;6.03;1.30;;;;;;;6.02;46.92;100947.16;4990278;28;20555;-48
2024/01/16 10:27:31;;;;;;;5.15;1.30;;;;;;;6.51;46.17;100944.41;4989957;28;20046;-44
2024/01/16 10:29:58;;;;;;;3.45;1.10;;;;;;;6.44;46.12;100940.75;4990259;28;20026;-47
2024/01/16 10:32:35;;;;;;;4.82;1.10;;;;;;;6.30;45.81;100946.31;4991129;28;20042;-45
2024/01/16 10:35:04;;;;;;;3.30;1.02;;;;;;;6.50;46.14;100938.34;4990074;28;20061;-44
2024/01/16 10:37:50;;;;;;;4.88;1.20;;;;;;;6.46;45.32;100938.22;4990826;28;20496;-44
2024/01/16 10:40:26;;;;;;;5.53;1.08;;;;;;;6.73;45.24;100938.16;4989212;28;20424;-45
2024/01/16 10:42:58;;;;;;;4.63;1.08;;;;;;;6.50;45.55;100935.75;4991377;28;20080;-45
2024/01/16 10:45:23;;;;;;;2.33;0.82;;;;;;;6.31;46.27;100938.59;4990245;28;20045;-46
2024/01/16 10:48:02;;;;;;;9.77;1.23;;;;;;;6.52;46.52;100938.41;4991272;28;20617;-45
2024/01/16 10:50:28;;;;;;;4.32;0.88;;;;;;;6.22;45.63;100943.47;4991012;28;20046;-44
2024/01/16 10:52:54;;;;;;;2.95;1.00;;;;;;;6.32;46.17;100942.97;4991704;28;20073;-46
2024/01/16 10:55:24;;;;;;;5.15;0.90;;;;;;;6.08;44.91;100935.28;4992215;28;20026;-43
2024/01/16 10:57:50;;;;;;;3.28;1.10;;;;;;;6.25;44.84;100937.53;4991947;28;20116;-45
2024/01/16 11:00:19;;;;;;;5.35;1.10;;;;;;;6.31;45.88;100924.78;4991208;28;20029;-43
2024/01/16 11:03:00;;;;;;;4.47;1.30;;;;;;;6.69;44.52;100919.06;4991338;28;20134;-45
2024/01/16 11:05:26;;;;;;;5.15;1.23;;;;;;;6.70;44.19;100918.22;4990304;28;20030;-46
2024/01/16 11:07:55;;;;;;;3.47;0.95;;;;;;;6.63;44.12;100912.81;4991316;28;20038;-44
2024/01/16 11:10:21;;;;;;;3.42;1.00;;;;;;;6.81;44.47;100914.22;4991193;28;20037;-45
2024/01/16 11:12:47;;;;;;;5.20;1.20;;;;;;;6.23;44.93;100913.28;4991639;28;20035;-43
2024/01/16 11:15:14;;;;;;;3.70;1.10;;;;;;;6.35;45.46;100911.97;4990130;28;20053;-49
2024/01/16 11:17:43;;;;;;;5.20;1.00;;;;;;;6.61;44.66;100909.28;4990535;28;20054;-48
2024/01/16 11:20:11;;;;;;;3.83;0.95;;;;;;;6.59;44.48;100909.25;4990554;28;20034;-47
2024/01/16 11:22:40;;;;;;;3.13;1.20;;;;;;;6.76;45.71;100901.97;4991101;28;20077;-44
2024/01/16 11:25:09;;;;;;;4.45;1.00;;;;;;;6.99;44.59;100897.44;4989358;28;20030;-45
2024/01/16 11:27:39;;;;;;;4.55;1.17;;;;;;;7.17;45.12;100897.97;4990772;28;20042;-45